Time;durP1;ratioP1;P1;durP2;ratioP2;P2;SDS_P1;SDS_P2;PMS_P1;PMS_P2;Temp;Humidity;BMP_temperature;BMP_pressure;BME280_temperature;BME280_humidity;BME280_pressure;Samples;Min_cycle;Max_cycle;Signal;HPM_P1;HPM_P2
2023/02/07 00:01:54;;;;;;;;;;;;;;;-142.75;100.00;80371.25;4978124;28;20000;-65
2023/02/07 00:04:19;;;;;;;;;;;;;;;-142.75;100.00;80355.50;4981173;28;19926;-65
2023/02/07 00:06:45;;;;;;;;;;;;;;;-142.75;100.00;80406.72;4981909;28;20599;-65
2023/02/07 00:09:11;;;;;;;;;;;;;;;-142.75;100.00;80398.84;4979741;28;19921;-63
2023/02/07 00:11:39;;;;;;;;;;;;;;;-142.75;100.00;80387.00;4982010;28;19924;-65
2023/02/07 00:14:05;;;;;;;;;;;;;;;-142.75;100.00;80390.97;4982768;28;19949;-64
2023/02/07 00:16:30;;;;;;;;;;;;;;;-142.75;100.00;80375.19;4982348;28;20420;-65
2023/02/07 00:18:55;;;;;;;;;;;;;;;-142.75;100.00;80367.31;4982060;28;20574;-65
2023/02/07 00:21:22;;;;;;;;;;;;;;;-142.75;100.00;80359.44;4978997;28;20325;-65
2023/02/07 00:23:47;;;;;;;;;;;;;;;-142.75;100.00;80349.56;4980152;28;19948;-65
2023/02/07 00:26:13;;;;;;;;;;;;;;;-142.75;100.00;80345.63;4982911;28;20413;-64
2023/02/07 00:28:39;;;;;;;;;;;;;;;-142.75;100.00;80345.63;4982879;28;19914;-64
2023/02/07 00:31:12;;;;;;;;;;;;;;;-142.75;100.00;80355.50;4983649;28;19921;-65
2023/02/07 00:33:38;;;;;;;;;;;;;;;-142.75;100.00;80345.63;4986197;28;19956;-65
2023/02/07 00:36:05;;;;;;;;;;;;;;;-142.75;100.00;80363.38;4982029;28;19918;-65
2023/02/07 00:38:30;;;;;;;;;;;;;;;-142.75;100.00;80327.91;4980467;28;19913;-64
2023/02/07 00:40:55;;;;;;;;;;;;;;;-142.75;100.00;80347.59;4980732;28;20455;-64
2023/02/07 00:43:21;;;;;;;;;;;;;;;-142.75;100.00;80343.66;4981621;28;19980;-65
2023/02/07 00:45:46;;;;;;;;;;;;;;;-142.75;100.00;80337.75;4988564;28;19917;-66
2023/02/07 00:48:11;;;;;;;;;;;;;;;-142.75;100.00;80335.78;4991762;28;20448;-65
2023/02/07 00:50:36;;;;;;;;;;;;;;;-142.75;100.00;80316.09;4991525;28;19918;-65
2023/02/07 00:53:02;;;;;;;;;;;;;;;-142.75;100.00;80300.31;4990176;28;19936;-65
2023/02/07 00:55:27;;;;;;;;;;;;;;;-142.75;100.00;80300.31;4990001;28;19942;-65
2023/02/07 00:57:52;;;;;;;;;;;;;;;-142.75;100.00;80286.53;4990287;28;19921;-65
2023/02/07 01:00:17;;;;;;;;;;;;;;;-142.75;100.00;80294.41;4991437;28;19980;-65
2023/02/07 01:02:42;;;;;;;;;;;;;;;-142.75;100.00;80302.28;4991473;28;20004;-65
2023/02/07 01:05:08;;;;;;;;;;;;;;;-142.75;100.00;80314.13;4991248;28;19984;-65
2023/02/07 01:07:33;;;;;;;;;;;;;;;-142.75;100.00;80316.09;4990173;28;20394;-64
2023/02/07 01:09:58;;;;;;;;;;;;;;;-142.75;100.00;80300.31;4991945;28;19924;-65
2023/02/07 01:12:23;;;;;;;;;;;;;;;-142.75;100.00;80288.50;4995188;28;20387;-65
2023/02/07 01:14:48;;;;;;;;;;;;;;;-142.75;100.00;80306.22;4995048;28;19914;-66
2023/02/07 01:17:14;;;;;;;;;;;;;;;-142.75;100.00;80284.56;4994043;28;19976;-66
2023/02/07 01:19:39;;;;;;;;;;;;;;;-142.75;100.00;80286.53;4995055;28;19917;-65
2023/02/07 01:22:04;;;;;;;;;;;;;;;-142.75;100.00;80322.00;4995162;28;19913;-63
2023/02/07 01:24:30;;;;;;;;;;;;;;;-142.75;100.00;80322.00;4994777;28;19961;-65
2023/02/07 01:26:55;;;;;;;;;;;;;;;-142.75;100.00;80316.09;4995079;28;20388;-65
2023/02/07 01:29:20;;;;;;;;;;;;;;;-142.75;100.00;80333.81;4995091;28;20023;-66
2023/02/07 01:31:46;;;;;;;;;;;;;;;-142.75;100.00;80312.16;4993686;28;20155;-65
2023/02/07 01:34:12;;;;;;;;;;;;;;;-142.75;100.00;80335.78;4993545;28;20282;-65
2023/02/07 01:36:37;;;;;;;;;;;;;;;-142.75;100.00;80333.81;4994683;28;19998;-65
2023/02/07 01:39:05;;;;;;;;;;;;;;;-142.75;100.00;80320.03;4994688;28;20475;-63
2023/02/07 01:41:30;;;;;;;;;;;;;;;-142.75;100.00;80310.16;4994760;28;19963;-65
2023/02/07 01:43:57;;;;;;;;;;;;;;;-142.75;100.00;80331.84;4994625;28;19913;-65
2023/02/07 01:46:23;;;;;;;;;;;;;;;-142.75;100.00;80347.59;4994661;28;19920;-65
2023/02/07 01:48:48;;;;;;;;;;;;;;;-142.75;100.00;80347.59;4993452;28;19913;-65
2023/02/07 01:51:14;;;;;;;;;;;;;;;-142.75;100.00;80363.38;4994537;28;19918;-66
2023/02/07 01:53:40;;;;;;;;;;;;;;;-142.75;100.00;80339.72;4994396;28;20407;-65
2023/02/07 01:56:08;;;;;;;;;;;;;;;-142.75;100.00;80387.00;4993122;28;19920;-64
2023/02/07 01:58:34;;;;;;;;;;;;;;;-142.75;100.00;80412.63;4990530;28;19968;-65
2023/02/07 02:01:00;;;;;;;;;;;;;;;-142.75;100.00;80406.72;4993113;28;20396;-65
2023/02/07 02:03:26;;;;;;;;;;;;;;;-142.75;100.00;80387.00;4993068;28;20378;-65
2023/02/07 02:05:53;;;;;;;;;;;;;;;-142.75;100.00;80357.47;4992743;28;19914;-65
2023/02/07 02:08:19;;;;;;;;;;;;;;;-142.75;100.00;80365.34;4994247;28;19932;-65
2023/02/07 02:10:44;;;;;;;;;;;;;;;-142.75;100.00;80359.44;4994312;28;19913;-65
2023/02/07 02:13:22;;;;;;;;;;;;;;;-142.75;100.00;80355.50;4994434;28;20020;-65
2023/02/07 02:16:04;;;;;;;;;;;;;;;-142.75;100.00;80396.88;4992696;28;20270;-65
2023/02/07 02:18:51;;;;;;;;;;;;;;;-142.75;100.00;80426.41;4994161;28;19913;-65
2023/02/07 02:21:19;;;;;;;;;;;;;;;-142.75;100.00;80434.31;4993207;28;19945;-65
2023/02/07 02:24:03;;;;;;;;;;;;;;;-142.75;100.00;80442.19;4993859;28;19921;-65
2023/02/07 02:26:31;;;;;;;;;;;;;;;-142.75;100.00;80446.13;4993748;28;20341;-65
2023/02/07 02:29:03;;;;;;;;;;;;;;;-142.75;100.00;80444.16;4992587;28;20049;-65
2023/02/07 02:31:37;;;;;;;;;;;;;;;-142.75;100.00;80450.06;4993703;28;19988;-64
2023/02/07 02:34:10;;;;;;;;;;;;;;;-142.75;100.00;80450.06;4992370;28;19960;-64
2023/02/07 02:36:44;;;;;;;;;;;;;;;-142.75;100.00;80454.00;4993665;28;19917;-65
2023/02/07 02:39:20;;;;;;;;;;;;;;;-142.75;100.00;80465.81;4993613;28;19956;-65
2023/02/07 02:41:51;;;;;;;;;;;;;;;-142.75;100.00;80455.97;4992436;28;20361;-65
2023/02/07 02:44:25;;;;;;;;;;;;;;;-142.75;100.00;80465.81;4992051;28;20016;-65
2023/02/07 02:46:52;;;;;;;;;;;;;;;-142.75;100.00;80481.59;4992438;28;19914;-65
2023/02/07 02:49:18;;;;;;;;;;;;;;;-142.75;100.00;80475.69;4993496;28;19914;-65
2023/02/07 02:51:43;;;;;;;;;;;;;;;-142.75;100.00;80479.63;4993392;28;20004;-66
2023/02/07 02:54:27;;;;;;;;;;;;;;;-142.75;100.00;80455.97;4982370;28;19941;-65
2023/02/07 02:57:15;;;;;;;;;;;;;;;-142.75;100.00;80461.88;4991968;28;20333;-65
2023/02/07 03:00:00;;;;;;;;;;;;;;;-142.75;100.00;80452.03;4991968;28;20316;-64
2023/02/07 03:02:28;;;;;;;;;;;;;;;-142.75;100.00;80424.44;4992138;28;19914;-65
2023/02/07 03:04:57;;;;;;;;;;;;;;;-142.75;100.00;80432.34;4991570;28;19920;-65
2023/02/07 03:07:28;;;;;;;;;;;;;;;-142.75;100.00;80436.28;4991915;28;19913;-66
2023/02/07 03:10:01;;;;;;;;;;;;;;;-142.75;100.00;80444.16;4993062;28;20012;-65
2023/02/07 03:12:33;;;;;;;;;;;;;;;-142.75;100.00;80457.94;4993088;28;19961;-65
2023/02/07 03:15:13;;;;;;;;;;;;;;;-142.75;100.00;80450.06;4992787;28;20024;-65
2023/02/07 03:17:48;;;;;;;;;;;;;;;-142.75;100.00;80422.47;4991802;28;19956;-66
2023/02/07 03:20:21;;;;;;;;;;;;;;;-142.75;100.00;80426.41;4992745;28;19924;-65
2023/02/07 03:22:47;;;;;;;;;;;;;;;-142.75;100.00;80442.19;4974557;28;19924;-66
2023/02/07 03:25:14;;;;;;;;;;;;;;;-142.75;100.00;80440.22;4992313;28;19914;-66
2023/02/07 03:27:40;;;;;;;;;;;;;;;-142.75;100.00;80432.34;4992982;28;19913;-66
2023/02/07 03:30:08;;;;;;;;;;;;;;;-142.75;100.00;80455.97;4992727;28;19914;-66
2023/02/07 03:32:34;;;;;;;;;;;;;;;-142.75;100.00;80457.94;4986872;28;19918;-65
2023/02/07 03:35:05;;;;;;;;;;;;;;;-142.75;100.00;80461.88;4991022;28;19921;-66
2023/02/07 03:37:30;;;;;;;;;;;;;;;-142.75;100.00;80450.06;4992668;28;20008;-65
2023/02/07 03:39:56;;;;;;;;;;;;;;;-142.75;100.00;80440.22;4992206;28;20012;-66
2023/02/07 03:42:25;;;;;;;;;;;;;;;-142.75;100.00;80418.53;4992587;28;19960;-65
2023/02/07 03:44:53;;;;;;;;;;;;;;;-142.75;100.00;80426.41;4992209;28;20016;-66
2023/02/07 03:47:18;;;;;;;;;;;;;;;-142.75;100.00;80418.53;4981843;28;19969;-66
2023/02/07 03:49:44;;;;;;;;;;;;;;;-142.75;100.00;80444.16;4990873;28;20381;-65
2023/02/07 03:52:09;;;;;;;;;;;;;;;-142.75;100.00;80450.06;4992429;28;19975;-66
2023/02/07 03:54:34;;;;;;;;;;;;;;;-142.75;100.00;80477.66;4992003;28;19960;-65
2023/02/07 03:56:59;;;;;;;;;;;;;;;-142.75;100.00;80481.59;4991229;28;19967;-65
2023/02/07 03:59:25;;;;;;;;;;;;;;;-142.75;100.00;80489.47;4992202;28;19953;-66
2023/02/07 04:01:50;;;;;;;;;;;;;;;-142.75;100.00;80479.63;4992047;28;19960;-65
2023/02/07 04:04:15;;;;;;;;;;;;;;;-142.75;100.00;80454.00;4991970;28;19914;-62
2023/02/07 04:06:40;;;;;;;;;;;;;;;-142.75;100.00;80434.31;4992082;28;19988;-65
2023/02/07 04:09:06;;;;;;;;;;;;;;;-142.75;100.00;80418.53;4976689;28;19914;-66
2023/02/07 04:11:31;;;;;;;;;;;;;;;-142.75;100.00;80400.81;4990292;28;19920;-66
2023/02/07 04:13:56;;;;;;;;;;;;;;;-142.75;100.00;80379.13;4992089;28;19924;-66
2023/02/07 04:16:22;;;;;;;;;;;;;;;-142.75;100.00;80379.13;4991959;28;19914;-65
2023/02/07 04:18:47;;;;;;;;;;;;;;;-142.75;100.00;80361.41;4991973;28;19917;-66
2023/02/07 04:21:12;;;;;;;;;;;;;;;-142.75;100.00;80351.56;4991817;28;19961;-66
2023/02/07 04:23:37;;;;;;;;;;;;;;;-142.75;100.00;80347.59;4991696;28;19914;-66
2023/02/07 04:26:02;;;;;;;;;;;;;;;-142.75;100.00;80349.56;4990419;28;19953;-65
2023/02/07 04:28:28;;;;;;;;;;;;;;;-142.75;100.00;80355.50;4990576;28;19922;-66
2023/02/07 04:30:53;;;;;;;;;;;;;;;-142.75;100.00;80345.63;4991078;28;19922;-65
2023/02/07 04:33:20;;;;;;;;;;;;;;;-142.75;100.00;80353.53;4991789;28;19913;-66
2023/02/07 04:35:45;;;;;;;;;;;;;;;-142.75;100.00;80400.81;4991689;28;19913;-66
2023/02/07 04:38:11;;;;;;;;;;;;;;;-142.75;100.00;80426.41;4990799;28;20393;-66
2023/02/07 04:40:37;;;;;;;;;;;;;;;-142.75;100.00;80450.06;4984329;28;19921;-66
2023/02/07 04:43:03;;;;;;;;;;;;;;;-142.75;100.00;80477.66;4991083;28;20009;-66
2023/02/07 04:45:28;;;;;;;;;;;;;;;-142.75;100.00;80489.47;4994154;28;20004;-65
2023/02/07 04:47:53;;;;;;;;;;;;;;;-142.75;100.00;80519.03;4994497;28;19944;-65
2023/02/07 04:50:18;;;;;;;;;;;;;;;-142.75;100.00;80532.81;4995606;28;20012;-66
2023/02/07 04:52:43;;;;;;;;;;;;;;;-142.75;100.00;80544.66;4977548;28;19922;-66
2023/02/07 04:55:09;;;;;;;;;;;;;;;-142.75;100.00;80574.19;4993508;28;20300;-66
2023/02/07 04:57:35;;;;;;;;;;;;;;;-142.75;100.00;80568.28;4995557;28;19914;-66
2023/02/07 05:00:00;;;;;;;;;;;;;;;-142.75;100.00;80586.03;4995539;28;19952;-65
2023/02/07 05:02:25;;;;;;;;;;;;;;;-142.75;100.00;80576.19;4995452;28;20293;-66
2023/02/07 05:04:51;;;;;;;;;;;;;;;-142.75;100.00;80552.53;4987249;28;20373;-65
2023/02/07 05:07:16;;;;;;;;;;;;;;;-142.75;100.00;80532.81;4995422;28;19917;-66
2023/02/07 05:09:41;;;;;;;;;;;;;;;-142.75;100.00;80524.94;4994104;28;20296;-65
2023/02/07 05:12:07;;;;;;;;;;;;;;;-142.75;100.00;80511.16;4995266;28;19918;-66
2023/02/07 05:14:32;;;;;;;;;;;;;;;-142.75;100.00;80487.50;4993803;28;20388;-66
2023/02/07 05:16:57;;;;;;;;;;;;;;;-142.75;100.00;80473.72;4995391;28;19914;-65
2023/02/07 05:19:22;;;;;;;;;;;;;;;-142.75;100.00;80485.53;4995071;28;19920;-66
2023/02/07 05:21:47;;;;;;;;;;;;;;;-142.75;100.00;80479.63;4995162;28;19913;-67
2023/02/07 05:24:13;;;;;;;;;;;;;;;-142.75;100.00;80505.25;4987192;28;19917;-65
2023/02/07 05:26:38;;;;;;;;;;;;;;;-142.75;100.00;80495.38;4993711;28;20273;-66
2023/02/07 05:29:03;;;;;;;;;;;;;;;-142.75;100.00;80505.25;4995162;28;19922;-66
2023/02/07 05:34:12;;;;;;;;;;;;;;;-142.75;100.00;80517.06;4992860;28;19968;-65
2023/02/07 05:36:37;;;;;;;;;;;;;;;-142.75;100.00;80505.25;4992951;28;19917;-66
2023/02/07 05:39:02;;;;;;;;;;;;;;;-142.75;100.00;80489.47;4994839;28;19914;-66
2023/02/07 05:41:28;;;;;;;;;;;;;;;-142.75;100.00;80497.34;4994741;28;19917;-66
2023/02/07 05:43:53;;;;;;;;;;;;;;;-142.75;100.00;80485.53;4994630;28;19975;-67
2023/02/07 05:46:18;;;;;;;;;;;;;;;-142.75;100.00;80495.38;4994494;28;20399;-65
2023/02/07 05:48:43;;;;;;;;;;;;;;;-142.75;100.00;80499.31;4977007;28;19918;-66
2023/02/07 05:51:09;;;;;;;;;;;;;;;-142.75;100.00;80471.75;4974721;28;19918;-66
2023/02/07 05:53:34;;;;;;;;;;;;;;;-142.75;100.00;80489.47;4975109;28;19922;-66
2023/02/07 05:55:59;;;;;;;;;;;;;;;-142.75;100.00;80477.66;4973930;28;19913;-66
2023/02/07 05:58:24;;;;;;;;;;;;;;;-142.75;100.00;80471.75;4975263;28;20365;-66
2023/02/07 06:00:49;;;;;;;;;;;;;;;-142.75;100.00;80469.78;4974880;28;19921;-66
2023/02/07 06:03:15;;;;;;;;;;;;;;;-142.75;100.00;80465.81;4977896;28;19952;-65
2023/02/07 06:05:40;;;;;;;;;;;;;;;-142.75;100.00;80452.03;4974616;28;19914;-66
2023/02/07 06:08:05;;;;;;;;;;;;;;;-142.75;100.00;80454.00;4974947;28;19914;-66
2023/02/07 06:10:31;;;;;;;;;;;;;;;-142.75;100.00;80440.22;4974832;28;21408;-66
2023/02/07 06:12:57;;;;;;;;;;;;;;;-142.75;100.00;80450.06;4991625;28;19953;-66
2023/02/07 06:15:22;;;;;;;;;;;;;;;-142.75;100.00;80459.91;4994091;28;19964;-66
2023/02/07 06:17:47;;;;;;;;;;;;;;;-142.75;100.00;80461.88;4994217;28;20313;-65
2023/02/07 06:20:13;;;;;;;;;;;;;;;-142.75;100.00;80467.81;4992620;28;20340;-65
2023/02/07 06:22:38;;;;;;;;;;;;;;;-142.75;100.00;80483.56;4994042;28;19921;-64
2023/02/07 06:25:03;;;;;;;;;;;;;;;-142.75;100.00;80473.72;4974886;28;19921;-65
2023/02/07 06:27:28;;;;;;;;;;;;;;;-142.75;100.00;80495.38;4992042;28;20029;-66
2023/02/07 06:29:53;;;;;;;;;;;;;;;-142.75;100.00;80489.47;4993858;28;19914;-66
2023/02/07 06:32:19;;;;;;;;;;;;;;;-142.75;100.00;80505.25;4993984;28;19913;-66
2023/02/07 06:34:44;;;;;;;;;;;;;;;-142.75;100.00;80497.34;4992047;28;19913;-63
2023/02/07 06:37:09;;;;;;;;;;;;;;;-142.75;100.00;80499.31;4992603;28;19914;-66
2023/02/07 06:39:34;;;;;;;;;;;;;;;-142.75;100.00;80489.47;4993537;28;19957;-64
2023/02/07 06:41:59;;;;;;;;;;;;;;;-142.75;100.00;80515.09;4993709;28;19959;-66
2023/02/07 06:44:25;;;;;;;;;;;;;;;-142.75;100.00;80507.22;4974812;28;20001;-63
2023/02/07 06:46:50;;;;;;;;;;;;;;;-142.75;100.00;80511.16;4992072;28;20052;-65
2023/02/07 06:49:15;;;;;;;;;;;;;;;-142.75;100.00;80517.06;4993596;28;20064;-65
2023/02/07 06:51:40;;;;;;;;;;;;;;;-142.75;100.00;80513.13;4991984;28;20385;-66
2023/02/07 06:54:08;;;;;;;;;;;;;;;-142.75;100.00;80509.19;4992100;28;19920;-66
2023/02/07 06:56:34;;;;;;;;;;;;;;;-142.75;100.00;80515.09;4993286;28;20370;-66
2023/02/07 06:58:59;;;;;;;;;;;;;;;-142.75;100.00;80495.38;4993325;28;19920;-66
2023/02/07 07:01:24;;;;;;;;;;;;;;;-142.75;100.00;80505.25;4991934;28;20015;-65
2023/02/07 07:03:50;;;;;;;;;;;;;;;-142.75;100.00;80513.13;4993167;28;20372;-66
2023/02/07 07:06:15;;;;;;;;;;;;;;;-142.75;100.00;80530.84;4993168;28;20028;-66
2023/02/07 07:08:41;;;;;;;;;;;;;;;-142.75;100.00;80519.03;4985747;28;19953;-66
2023/02/07 07:11:06;;;;;;;;;;;;;;;-142.75;100.00;80519.03;4977756;28;19918;-66
2023/02/07 07:13:31;;;;;;;;;;;;;;;-142.75;100.00;80524.94;4991394;28;19917;-66
2023/02/07 07:15:56;;;;;;;;;;;;;;;-142.75;100.00;80517.06;4992980;28;19918;-65
2023/02/07 07:18:22;;;;;;;;;;;;;;;-142.75;100.00;80509.19;4991770;28;19921;-65
2023/02/07 07:20:51;;;;;;;;;;;;;;;-142.75;100.00;80505.25;4992807;28;20296;-65
2023/02/07 07:23:16;;;;;;;;;;;;;;;-142.75;100.00;80524.94;4991669;28;19921;-65
2023/02/07 07:25:41;;;;;;;;;;;;;;;-142.75;100.00;80507.22;4992658;28;20296;-66
2023/02/07 07:28:07;;;;;;;;;;;;;;;-142.75;100.00;80526.91;4987165;28;19925;-65
2023/02/07 07:30:32;;;;;;;;;;;;;;;-142.75;100.00;80519.03;4991815;28;19913;-66
2023/02/07 07:32:57;;;;;;;;;;;;;;;-142.75;100.00;80519.03;4984600;28;19914;-65
2023/02/07 07:35:23;;;;;;;;;;;;;;;-142.75;100.00;80517.06;4991131;28;19913;-65
2023/02/07 07:37:48;;;;;;;;;;;;;;;-142.75;100.00;80530.84;4992647;28;19914;-66
2023/02/07 07:40:13;;;;;;;;;;;;;;;-142.75;100.00;80522.97;4988353;28;19925;-65
2023/02/07 07:42:38;;;;;;;;;;;;;;;-142.75;100.00;80505.25;4991242;28;19914;-65
2023/02/07 07:45:04;;;;;;;;;;;;;;;-142.75;100.00;80515.09;4992225;28;19914;-66
2023/02/07 07:47:29;;;;;;;;;;;;;;;-142.75;100.00;80509.19;4992550;28;19913;-66
2023/02/07 07:49:54;;;;;;;;;;;;;;;-142.75;100.00;80503.28;4992350;28;19973;-66
2023/02/07 07:52:19;;;;;;;;;;;;;;;-142.75;100.00;80493.41;4992426;28;19921;-65
2023/02/07 07:54:45;;;;;;;;;;;;;;;-142.75;100.00;80481.59;4986767;28;19913;-65
2023/02/07 07:57:10;;;;;;;;;;;;;;;-142.75;100.00;80469.78;4982429;28;19914;-65
2023/02/07 07:59:35;;;;;;;;;;;;;;;-142.75;100.00;80469.78;4981872;28;19920;-64
2023/02/07 08:02:00;;;;;;;;;;;;;;;-142.75;100.00;80465.81;4982425;28;19914;-65
2023/02/07 08:04:25;;;;;;;;;;;;;;;-142.75;100.00;80454.00;4982173;28;19914;-65
2023/02/07 08:06:51;;;;;;;;;;;;;;;-142.75;100.00;80440.22;4981536;28;19921;-64
2023/02/07 08:09:16;;;;;;;;;;;;;;;-142.75;100.00;80430.38;4981779;28;19937;-65
2023/02/07 08:11:41;;;;;;;;;;;;;;;-142.75;100.00;80454.00;4981569;28;19921;-63
2023/02/07 08:14:06;;;;;;;;;;;;;;;-142.75;100.00;80487.50;4985211;28;19924;-62
2023/02/07 08:16:31;;;;;;;;;;;;;;;-142.75;100.00;80485.53;4983732;28;19922;-64
2023/02/07 08:18:57;;;;;;;;;;;;;;;-142.75;100.00;80483.56;4982158;28;19922;-65
2023/02/07 08:21:24;;;;;;;;;;;;;;;-142.75;100.00;80493.41;4981821;28;19925;-65
2023/02/07 08:23:49;;;;;;;;;;;;;;;-142.75;100.00;80487.50;4978383;28;19929;-66
2023/02/07 08:26:14;;;;;;;;;;;;;;;-142.75;100.00;80471.75;4976206;28;20005;-66
2023/02/07 08:28:40;;;;;;;;;;;;;;;-142.75;100.00;80471.75;4991227;28;20000;-64
2023/02/07 08:31:05;;;;;;;;;;;;;;;-142.75;100.00;80505.25;4991717;28;20407;-65
2023/02/07 08:33:30;;;;;;;;;;;;;;;-142.75;100.00;80501.28;4990307;28;19920;-64
2023/02/07 08:35:56;;;;;;;;;;;;;;;-142.75;100.00;80485.53;4991613;28;20365;-64
2023/02/07 08:38:21;;;;;;;;;;;;;;;-142.75;100.00;80501.28;4990919;28;19913;-66
2023/02/07 08:40:46;;;;;;;;;;;;;;;-142.75;100.00;80483.56;4987649;28;20459;-67
2023/02/07 08:43:12;;;;;;;;;;;;;;;-142.75;100.00;80507.22;4991717;28;19913;-66
2023/02/07 08:45:42;;;;;;;;;;;;;;;-142.75;100.00;80483.56;4991360;28;19925;-65
2023/02/07 08:48:07;;;;;;;;;;;;;;;-142.75;100.00;80473.72;4991651;28;19941;-65
2023/02/07 08:50:32;;;;;;;;;;;;;;;-142.75;100.00;80473.72;4991516;28;20400;-65
2023/02/07 08:52:57;;;;;;;;;;;;;;;-142.75;100.00;80479.63;4991624;28;19914;-66
2023/02/07 08:55:23;;;;;;;;;;;;;;;-142.75;100.00;80487.50;4991496;28;19975;-65
2023/02/07 08:57:48;;;;;;;;;;;;;;;-142.75;100.00;80493.41;4984637;28;19914;-65
2023/02/07 09:00:14;;;;;;;;;;;;;;;-142.75;100.00;80479.63;4975704;28;19918;-65
2023/02/07 09:02:39;;;;;;;;;;;;;;;-142.75;100.00;80505.25;4987588;28;20377;-65
2023/02/07 09:05:05;;;;;;;;;;;;;;;-142.75;100.00;80497.34;4972641;28;19914;-65
2023/02/07 09:07:30;;;;;;;;;;;;;;;-142.75;100.00;80481.59;4972166;28;19914;-66
2023/02/07 09:09:56;;;;;;;;;;;;;;;-142.75;100.00;80475.69;4983427;28;20048;-65
2023/02/07 09:12:21;;;;;;;;;;;;;;;-142.75;100.00;80477.66;4973702;28;20012;-65
2023/02/07 09:14:46;;;;;;;;;;;;;;;-142.75;100.00;80457.94;4983444;28;20313;-65
2023/02/07 09:17:11;;;;;;;;;;;;;;;-142.75;100.00;80412.63;4983151;28;19922;-65
2023/02/07 09:19:36;;;;;;;;;;;;;;;-142.75;100.00;80388.97;4987729;28;20284;-67
2023/02/07 09:22:02;;;;;;;;;;;;;;;-142.75;100.00;80410.66;4987566;28;19921;-65
2023/02/07 09:24:27;;;;;;;;;;;;;;;-142.75;100.00;80434.31;4990007;28;19913;-66
2023/02/07 09:26:53;;;;;;;;;;;;;;;-142.75;100.00;80424.44;4981827;28;19913;-66
2023/02/07 09:29:18;;;;;;;;;;;;;;;-142.75;100.00;80410.66;4981190;28;19913;-64
2023/02/07 09:31:44;;;;;;;;;;;;;;;-142.75;100.00;80414.59;4984868;28;19969;-65
2023/02/07 09:34:09;;;;;;;;;;;;;;;-142.75;100.00;80442.19;4984127;28;20029;-65
2023/02/07 09:36:34;;;;;;;;;;;;;;;-142.75;100.00;80422.47;4980453;28;20378;-64
2023/02/07 09:39:00;;;;;;;;;;;;;;;-142.75;100.00;80434.31;4974306;28;19941;-66
2023/02/07 09:41:25;;;;;;;;;;;;;;;-142.75;100.00;80454.00;4993258;28;19924;-65
2023/02/07 09:44:02;;;;;;;;;;;;;;;-142.75;100.00;80426.41;4994737;28;19920;-64
2023/02/07 09:46:34;;;;;;;;;;;;;;;-142.75;100.00;80440.22;4995249;28;19964;-64
2023/02/07 09:49:19;;;;;;;;;;;;;;;-142.75;100.00;80446.13;4984717;28;20000;-65
2023/02/07 09:51:45;;;;;;;;;;;;;;;-142.75;100.00;80402.78;4986059;28;19913;-65
2023/02/07 09:54:28;;;;;;;;;;;;;;;-142.75;100.00;80414.59;4994475;28;20350;-65
2023/02/07 09:56:55;;;;;;;;;;;;;;;-142.75;100.00;80434.31;4994515;28;19921;-65
2023/02/07 09:59:37;;;;;;;;;;;;;;;-142.75;100.00;80477.66;4994535;28;19928;-66
2023/02/07 10:02:08;;;;;;;;;;;;;;;-142.75;100.00;80461.88;4994445;28;19921;-65
2023/02/07 10:04:39;;;;;;;;;;;;;;;-142.75;100.00;80457.94;4994157;28;19921;-64
2023/02/07 10:07:06;;;;;;;;;;;;;;;-142.75;100.00;80473.72;4994331;28;19945;-64
2023/02/07 10:09:35;;;;;;;;;;;;;;;-142.75;100.00;80483.56;4994398;28;19914;-66
2023/02/07 10:12:16;;;;;;;;;;;;;;;-142.75;100.00;80495.38;4994200;28;19914;-65
2023/02/07 10:14:58;;;;;;;;;;;;;;;-142.75;100.00;80522.97;4993933;28;19936;-65
2023/02/07 10:17:27;;;;;;;;;;;;;;;-142.75;100.00;80540.72;4994350;28;20274;-65
2023/02/07 10:20:01;;;;;;;;;;;;;;;-142.75;100.00;80554.50;4993820;28;19964;-65
2023/02/07 10:22:49;;;;;;;;;;;;;;;-142.75;100.00;80560.41;4994099;28;19914;-66
2023/02/07 10:25:14;;;;;;;;;;;;;;;-142.75;100.00;80572.22;4992361;28;19921;-65
2023/02/07 10:27:45;;;;;;;;;;;;;;;-142.75;100.00;80568.28;4984966;28;20317;-66
2023/02/07 10:30:23;;;;;;;;;;;;;;;-142.75;100.00;80540.72;4974492;28;20374;-65
2023/02/07 10:32:48;;;;;;;;;;;;;;;-142.75;100.00;80546.63;4992385;28;20325;-65
2023/02/07 10:35:17;;;;;;;;;;;;;;;-142.75;100.00;80556.47;4992431;28;19913;-65
2023/02/07 10:37:44;;;;;;;;;;;;;;;-142.75;100.00;80522.97;4993947;28;20019;-65
2023/02/07 10:40:23;;;;;;;;;;;;;;;-142.75;100.00;80497.34;4993436;28;19918;-65
2023/02/07 10:43:01;;;;;;;;;;;;;;;-142.75;100.00;80457.94;4991821;28;19913;-65
2023/02/07 10:45:27;;;;;;;;;;;;;;;-142.75;100.00;80455.97;4993501;28;19918;-65
2023/02/07 10:47:52;;;;;;;;;;;;;;;-142.75;100.00;80442.19;4993638;28;20295;-65
2023/02/07 10:50:18;;;;;;;;;;;;;;;-142.75;100.00;80424.44;4992285;28;19914;-65
2023/02/07 10:52:49;;;;;;;;;;;;;;;-142.75;100.00;80398.84;4993548;28;19921;-65
2023/02/07 10:55:17;;;;;;;;;;;;;;;-142.75;100.00;80418.53;4991834;28;19922;-65
2023/02/07 10:57:50;;;;;;;;;;;;;;;-142.75;100.00;80430.38;4993513;28;20262;-64
2023/02/07 11:00:20;;;;;;;;;;;;;;;-142.75;100.00;80414.59;4993400;28;19918;-65
2023/02/07 11:03:00;;;;;;;;;;;;;;;-142.75;100.00;80379.13;4993415;28;19960;-65
2023/02/07 11:05:27;;;;;;;;;;;;;;;-142.75;100.00;80353.53;4993097;28;19968;-65
2023/02/07 11:08:01;;;;;;;;;;;;;;;-142.75;100.00;80410.66;4991890;28;19940;-65
2023/02/07 11:10:32;;;;;;;;;;;;;;;-142.75;100.00;80377.16;4993027;28;19960;-66
2023/02/07 11:12:58;;;;;;;;;;;;;;;-142.75;100.00;80367.31;4991917;28;19918;-66
2023/02/07 11:15:36;;;;;;;;;;;;;;;-142.75;100.00;80383.06;4992827;28;19928;-65
2023/02/07 11:18:02;;;;;;;;;;;;;;;-142.75;100.00;80345.63;4993114;28;19920;-65
2023/02/07 11:20:36;;;;;;;;;;;;;;;-142.75;100.00;80361.41;4991605;28;20560;-65
2023/02/07 11:23:04;;;;;;;;;;;;;;;-142.75;100.00;80363.38;4992919;28;20000;-66
2023/02/07 11:25:41;;;;;;;;;;;;;;;-142.75;100.00;80347.59;4986599;28;19937;-63
2023/02/07 11:28:13;;;;;;;;;;;;;;;-142.75;100.00;80282.59;4984477;28;20009;-66
2023/02/07 11:30:38;;;;;;;;;;;;;;;-142.75;100.00;80256.97;4991427;28;19914;-65
2023/02/07 11:33:04;;;;;;;;;;;;;;;-142.75;100.00;80308.19;4992735;28;19976;-65
2023/02/07 11:35:30;;;;;;;;;;;;;;;-142.75;100.00;80300.31;4992544;28;19968;-66
2023/02/07 11:38:00;;;;;;;;;;;;;;;-142.75;100.00;80296.38;4992570;28;19914;-65
2023/02/07 11:40:40;;;;;;;;;;;;;;;-142.75;100.00;80302.28;4982374;28;19948;-63
2023/02/07 11:43:10;;;;;;;;;;;;;;;-142.75;100.00;80268.78;4983309;28;19975;-66
2023/02/07 11:45:37;;;;;;;;;;;;;;;-142.75;100.00;80288.50;4981325;28;19918;-65
2023/02/07 11:48:03;;;;;;;;;;;;;;;-142.75;100.00;80298.34;4981387;28;19922;-65
2023/02/07 11:50:35;;;;;;;;;;;;;;;-142.75;100.00;80253.03;4983152;28;19913;-64
2023/02/07 11:53:00;;;;;;;;;;;;;;;-142.75;100.00;80241.22;4980990;28;19913;-65
2023/02/07 11:55:31;;;;;;;;;;;;;;;-142.75;100.00;80262.88;4982282;28;19960;-65
2023/02/07 11:57:57;;;;;;;;;;;;;;;-142.75;100.00;80262.88;4979530;28;19971;-65
2023/02/07 12:00:27;;;;;;;;;;;;;;;-142.75;100.00;80241.22;4975353;28;20420;-65
2023/02/07 12:03:03;;;;;;;;;;;;;;;-142.75;100.00;80322.00;4972922;28;19914;-65
2023/02/07 12:05:35;;;;;;;;;;;;;;;-142.75;100.00;80310.16;4990451;28;20302;-63
2023/02/07 12:08:03;;;;;;;;;;;;;;;-142.75;100.00;80323.97;4991985;28;19914;-65
2023/02/07 12:10:34;;;;;;;;;;;;;;;-142.75;100.00;80268.78;4992147;28;19913;-64
2023/02/07 12:13:03;;;;;;;;;;;;;;;-142.75;100.00;80249.09;4991987;28;19945;-66
2023/02/07 12:15:28;;;;;;;;;;;;;;;-142.75;100.00;80205.75;4990576;28;19922;-64
2023/02/07 12:17:53;;;;;;;;;;;;;;;-142.75;100.00;80188.00;4990709;28;20036;-65
2023/02/07 12:20:22;;;;;;;;;;;;;;;-142.75;100.00;80182.09;4991886;28;19918;-67
2023/02/07 12:22:53;;;;;;;;;;;;;;;-142.75;100.00;80091.47;4982612;28;19918;-66